地図

経路データ

SID SEASON NUMBER BASIN SUBBASIN NAME ISO_TIME NATURE LAT LON WMO_WIND WMO_PRES WMO_AGENCY TRACK_TYPE DIST2LAND LANDFALL IFLAG USA_AGENCY USA_ATCF_ID USA_LAT USA_LON USA_RECORD USA_STATUS USA_WIND USA_PRES USA_SSHS USA_R34_NE USA_R34_SE USA_R34_SW USA_R34_NW USA_R50_NE USA_R50_SE USA_R50_SW USA_R50_NW USA_R64_NE USA_R64_SE USA_R64_SW USA_R64_NW USA_POCI USA_ROCI USA_RMW USA_EYE TOKYO_LAT TOKYO_LON TOKYO_GRADE TOKYO_WIND TOKYO_PRES TOKYO_R50_DIR TOKYO_R50_LONG TOKYO_R50_SHORT TOKYO_R30_DIR TOKYO_R30_LONG TOKYO_R30_SHORT TOKYO_LAND CMA_LAT CMA_LON CMA_CAT CMA_WIND CMA_PRES HKO_LAT HKO_LON HKO_CAT HKO_WIND HKO_PRES NEWDELHI_LAT NEWDELHI_LON NEWDELHI_GRADE NEWDELHI_WIND NEWDELHI_PRES NEWDELHI_CI NEWDELHI_DP NEWDELHI_POCI REUNION_LAT REUNION_LON REUNION_TYPE REUNION_WIND REUNION_PRES REUNION_TNUM REUNION_CI REUNION_RMW REUNION_R34_NE REUNION_R34_SE REUNION_R34_SW REUNION_R34_NW REUNION_R50_NE REUNION_R50_SE REUNION_R50_SW REUNION_R50_NW REUNION_R64_NE REUNION_R64_SE REUNION_R64_SW REUNION_R64_NW BOM_LAT BOM_LON BOM_TYPE BOM_WIND BOM_PRES BOM_TNUM BOM_CI BOM_RMW BOM_R34_NE BOM_R34_SE BOM_R34_SW BOM_R34_NW BOM_R50_NE BOM_R50_SE BOM_R50_SW BOM_R50_NW BOM_R64_NE BOM_R64_SE BOM_R64_SW BOM_R64_NW BOM_ROCI BOM_POCI BOM_EYE BOM_POS_METHOD BOM_PRES_METHOD NADI_LAT NADI_LON NADI_CAT NADI_WIND NADI_PRES WELLINGTON_LAT WELLINGTON_LON WELLINGTON_WIND WELLINGTON_PRES DS824_LAT DS824_LON DS824_STAGE DS824_WIND DS824_PRES TD9636_LAT TD9636_LON TD9636_STAGE TD9636_WIND TD9636_PRES TD9635_LAT TD9635_LON TD9635_WIND TD9635_PRES TD9635_ROCI NEUMANN_LAT NEUMANN_LON NEUMANN_CLASS NEUMANN_WIND NEUMANN_PRES MLC_LAT MLC_LON MLC_CLASS MLC_WIND MLC_PRES USA_GUST BOM_GUST BOM_GUST_PER REUNION_GUST REUNION_GUST_PER USA_SEAHGT USA_SEARAD_NE USA_SEARAD_SE USA_SEARAD_SW USA_SEARAD_NW STORM_SPEED STORM_DIR
1961248N18155 1961 86 WP MM PAMELA 1961-09-05 00:00:00 TS 18.0000 155.000 1008 tokyo main 2361 2326 _OO___________ -1 18.0000 155.000 2 1008 0 0 0 18.0000 155.000 0 1008 14 248
1961248N18155 1961 86 WP MM PAMELA 1961-09-05 03:00:00 TS 17.7364 154.304 main 2315 2280 _PP___________ -1 17.7000 154.311 2 1007 0 0 17.7727 154.297 0 1007 15 251
1961248N18155 1961 86 WP MM PAMELA 1961-09-05 06:00:00 TS 17.5000 153.500 1006 tokyo main 2280 2246 _OO___________ -1 17.5000 153.500 2 1006 0 0 0 17.5000 153.500 0 1006 18 256
1961248N18155 1961 86 WP MM PAMELA 1961-09-05 09:00:00 TS 17.2975 152.517 main 2243 2197 _PP___________ -1 17.4377 152.489 2 1007 0 0 17.1574 152.545 0 1005 20 257
1961248N18155 1961 86 WP MM PAMELA 1961-09-05 12:00:00 TS 17.0500 151.450 1008 tokyo main 2197 2133 _OO___________ -1 17.3000 151.400 2 1008 0 0 0 16.8000 151.500 0 1005 21 252
1961248N18155 1961 86 WP MM PAMELA 1961-09-05 15:00:00 TS 16.6381 150.436 main 2120 2074 _PP___________ -1 16.7918 150.399 2 1007 0 0 16.4844 150.473 0 1005 21 248
1961248N18155 1961 86 WP MM PAMELA 1961-09-05 18:00:00 TS 16.2500 149.400 1006 tokyo main 2072 2041 _OO___________ -1 16.3000 149.400 2 1006 0 0 0 16.2000 149.400 0 1005 21 255
1961248N18155 1961 86 WP MM PAMELA 1961-09-05 21:00:00 TS 16.0885 148.301 main 2041 2027 _PP___________ -1 16.2647 148.352 2 1006 0 0 15.9124 148.250 0 1005 21 262
1961248N18155 1961 86 WP MM PAMELA 1961-09-06 00:00:00 TS 15.9500 147.200 1007 tokyo main 2027 1982 _OO___________ -1 16.2000 147.300 2 1007 0 0 0 15.7000 147.100 0 1005 21 255
1961248N18155 1961 86 WP MM PAMELA 1961-09-06 03:00:00 TS 15.5567 146.174 main 1983 1953 _PP___________ -1 15.5160 146.349 2 1006 0 0 15.5973 145.998 0 1005 21 252
1961248N18155 1961 86 WP MM PAMELA 1961-09-06 06:00:00 TS 15.3000 145.150 1005 tokyo main 1955 1956 _OO___________ -1 15.0000 145.300 2 1005 0 0 0 15.6000 145.000 0 1005 21 268
1961248N18155 1961 86 WP MM PAMELA 1961-09-06 09:00:00 TS 15.4881 144.003 main 1992 1932 _PP___________ -1 15.3367 143.866 2 1005 0 0 15.6395 144.140 0 1005 22 286
1961248N18155 1961 86 WP MM PAMELA 1961-09-06 12:00:00 TS 15.9000 142.950 1006 tokyo main 1932 1855 _OO___________ -1 16.0000 142.500 2 1006 0 0 0 15.8000 143.400 0 1005 20 293
1961248N18155 1961 86 WP MM PAMELA 1961-09-06 15:00:00 TS 16.2607 142.134 main 1847 1802 _PP___________ -1 16.4240 141.562 2 1005 0 0 16.0973 142.705 0 1004 16 302
1961248N18155 1961 86 WP MM PAMELA 1961-09-06 18:00:00 TS 16.7500 141.550 1004 tokyo main 1808 1788 _OO___________ -1 17.0000 141.000 2 1004 0 0 0 16.5000 142.100 0 1004 15 325
1961248N18155 1961 86 WP MM PAMELA 1961-09-06 21:00:00 TS 17.5118 141.221 main 1788 1756 _PP___________ -1 18.0739 140.864 2 1005 0 0 16.9497 141.577 0 1004 16 337
1961248N18155 1961 86 WP MM PAMELA 1961-09-07 00:00:00 TS 18.2000 140.900 1006 tokyo main 1756 1695 _OO___________ -1 19.0000 140.700 2 1006 0 0 0 17.4000 141.100 0 1004 13 316
1961248N18155 1961 86 WP MM PAMELA 1961-09-07 03:00:00 TS 18.4693 140.251 main 1695 1658 _PP___________ -1 19.1512 139.902 2 1005 0 0 17.7874 140.600 0 1004 13 285
1961248N18155 1961 86 WP MM PAMELA 1961-09-07 06:00:00 TS 18.5500 139.550 1005 tokyo main 1649 1607 _OO___________ -1 19.0000 139.000 2 1005 0 0 0 18.1000 140.100 0 1004 12 280
1961248N18155 1961 86 WP MM PAMELA 1961-09-07 09:00:00 TS 18.6646 139.020 main 1607 1580 _PP___________ -1 18.9993 138.448 2 1005 0 0 18.3299 139.592 0 1004 10 282
1961248N18155 1961 86 WP MM PAMELA 1961-09-07 12:00:00 TS 18.7500 138.550 1005 tokyo main 1577 1538 _OO___________ -1 19.0000 138.000 2 1005 0 0 0 18.5000 139.100 0 1004 9 279
1961248N18155 1961 86 WP MM PAMELA 1961-09-07 15:00:00 TS 18.8101 138.034 main 1529 1497 _PP___________ -1 18.9627 137.440 2 1004 0 0 18.6574 138.627 0 1003 9 279
1961248N18155 1961 86 WP MM PAMELA 1961-09-07 18:00:00 TS 18.9000 137.600 1004 tokyo main 1497 1483 _OO___________ -1 19.0000 137.000 2 1004 0 0 0 18.8000 138.200 0 1003 7 293
1961248N18155 1961 86 WP MM PAMELA 1961-09-07 21:00:00 TS 19.0885 137.345 main 1480 1460 _PP___________ -1 19.2347 136.862 2 1002 0 0 18.9424 137.827 0 1003 6 313
1961248N18155 1961 86 WP MM PAMELA 1961-09-08 00:00:00 TS 19.3000 137.150 1000 tokyo main 1460 1437 _OO___________ -1 19.5000 136.800 2 1000 0 0 0 19.1000 137.500 0 1003 6 310
1961248N18155 1961 86 WP MM PAMELA 1961-09-08 03:00:00 TS 19.4575 136.879 main 1427 1404 _PP___________ -1 19.6151 136.557 2 1001 0 0 19.2999 137.200 0 1002 6 300
1961248N18155 1961 86 WP MM PAMELA 1961-09-08 06:00:00 TS 19.6000 136.600 1003 tokyo main 1404 1385 _OO___________ -1 19.7000 136.300 2 1003 0 0 0 19.5000 136.900 0 1002 6 300
1961248N18155 1961 86 WP MM PAMELA 1961-09-08 09:00:00 TS 19.7500 136.335 main 1371 1359 _PP___________ -1 19.8499 136.135 2 1002 0 0 19.6501 136.535 0 1002 6 289
1961248N18155 1961 86 WP MM PAMELA 1961-09-08 12:00:00 TS 19.8000 135.967 1002 tokyo main 1359 1337 OOO______OOO__ jtwc_wp WP201961 19.6000 135.700 30 -1 20.0000 136.000 2 1002 0 0 0 19.8000 136.200 0 1002 19.6000 135.700 TC 30 19.6000 135.700 1 30 19.6000 135.700 30 992 360 6 289
1961248N18155 1961 86 WP MM PAMELA 1961-09-08 15:00:00 TS 19.9505 135.728 main 1326 1312 PPP______PPP__ WP201961 19.8475 135.540 32 -1 20.1000 135.842 2 1002 0 0 19.9924 135.977 0 1001 19.8475 135.540 TC 32 19.8768 135.562 1 33 19.8475 135.540 32 990 360 5 311
1961248N18155 1961 86 WP MM PAMELA 1961-09-08 18:00:00 TS 20.1464 135.544 1002 tokyo main 1308 1273 OOO______OPO__ jtwc_wp WP201961 20.1000 135.400 35 0 20.2000 135.700 2 1002 0 0 0 20.2000 135.800 1 29 1001 20.1000 135.400 TC 35 20.1428 135.428 1 37 20.1000 135.400 35 989 360 5 323
1961248N18155 1961 86 WP MM PAMELA 1961-09-08 21:00:00 TS 20.3683 135.396 main 1273 1249 PPP______PPP__ WP201961 20.3575 135.292 40 0 20.3425 135.600 2 1001 0 0 20.4075 135.592 1 29 1001 20.3575 135.292 TC 40 20.3874 135.306 1 41 20.3575 135.292 40 986 360 5 332
1961248N18155 1961 86 WP MM PAMELA 1961-09-09 00:00:00 TS 20.5800 135.300 1000 tokyo main 1249 1224 OOOO_____OOO__ jtwc_wp WP201961 20.6000 135.200 45 0 20.5000 135.500 2 1000 0 0 0 20.6000 135.400 1 29 1001 20.5000 135.700 TS 40 983 20.6000 135.200 TC 45 20.6000 135.200 2 45 20.6000 135.200 45 984 360 4 333
1961248N18155 1961 86 WP MM PAMELA 1961-09-09 03:00:00 TS 20.7682 135.182 main 1224 1210 PPPP_____PPP__ WP201961 20.8150 135.107 50 0 20.6350 135.357 2 997 0 0 20.7500 135.242 1 33 998 20.7753 135.301 TS 45 982 20.8150 135.107 TC 50 20.7759 135.111 2 50 20.8150 135.107 50 982 360 4 327
1961248N18155 1961 86 WP MM PAMELA 1961-09-09 06:00:00 TS 20.9458 135.047 995 tokyo main 1206 1182 OOOO_____OPO__ jtwc_wp WP201961 21.0000 135.000 55 0 20.8000 135.200 9 995 0 0 0 20.9000 135.100 2 38 995 21.0000 135.000 STS 50 982 21.0000 135.000 TC 55 20.9345 135.016 2 55 21.0000 135.000 55 981 360 4 324
1961248N18155 1961 86 WP MM PAMELA 1961-09-09 09:00:00 TS 21.1161 134.911 main 1182 1157 PPPP_____PPP__ WP201961 21.1500 134.865 60 0 21.0274 135.072 9 992 0 0 21.0849 134.972 2 43 992 21.1498 134.850 STS 52 981 21.1500 134.865 TC 60 21.1008 134.889 2 60 21.1500 134.865 60 979 360 5 321
1961248N18155 1961 86 WP MM PAMELA 1961-09-09 12:00:00 TS 21.3000 134.743 990 tokyo main 1154 1126 OOOO_____OOO__ jtwc_wp WP201961 21.3000 134.700 65 1 21.3000 134.900 9 990 0 0 0 21.3000 134.800 3 48 990 21.3000 134.700 STS 55 981 21.3000 134.700 TC 65 21.3000 134.700 3 65 21.3000 134.700 65 977 360 5 318
1961248N18155 1961 86 WP MM PAMELA 1961-09-09 15:00:00 TS 21.5128 134.529 main 1126 1084 PPPP_____PPP__ WP201961 21.4623 134.552 70 1 21.5924 134.645 9 985 0 0 21.5275 134.537 3 53 985 21.5200 134.387 STS 57 978 21.4623 134.552 TC 70 21.5632 134.475 3 70 21.4623 134.552 70 975 360 7 315
1961248N18155 1961 86 WP MM PAMELA 1961-09-09 18:00:00 TS 21.7801 134.226 980 tokyo main 1084 1043 OOOO_____OPO__ jtwc_wp WP201961 21.7000 134.300 75 1 21.9000 134.300 9 980 0 0 0 21.8000 134.200 3 58 980 21.8000 134.000 STS 60 975 21.7000 134.300 TC 75 21.8609 134.179 3 75 21.7000 134.300 75 973 360 9 313
1961248N18155 1961 86 WP MM PAMELA 1961-09-09 21:00:00 TS 22.1138 133.835 main 1040 983 PPPP_____PPP__ WP201961 22.0699 133.875 80 1 22.1697 133.909 9 975 0 0 22.1195 133.867 3 67 976 22.1195 133.652 STS 70 970 22.0699 133.875 TC 80 22.1782 133.793 3 80 22.0699 133.875 80 970 360 11 310
1961248N18155 1961 86 WP MM PAMELA 1961-09-10 00:00:00 TS 22.5000 133.314 970 tokyo main 983 925 OOOO_____OOO__ jtwc_wp WP201961 22.5000 133.300 85 2 22.5000 133.400 9 970 0 0 0 22.5000 133.400 4 77 972 22.5000 133.200 T 80 965 22.5000 133.300 TC 85 22.5000 133.300 4 85 22.5000 133.300 85 967 360 14 307
1961248N18155 1961 86 WP MM PAMELA 1961-09-10 03:00:00 TS 22.9482 132.658 main 925 869 PPPP_____PPP__ WP201961 22.9299 132.638 90 2 23.0299 132.754 9 967 0 0 22.9953 132.704 4 82 969 22.9727 132.546 T 85 960 22.9299 132.638 TC 90 22.8495 132.689 4 89 22.9299 132.638 90 961 330 15 303
1961248N18155 1961 86 WP MM PAMELA 1961-09-10 06:00:00 TS 23.3416 131.910 965 tokyo main 868 827 OOOO_____OPO__ jtwc_wp WP201961 23.3000 131.900 95 2 23.5000 132.000 9 965 0 0 0 23.4000 131.900 5 87 967 23.4000 131.800 ST 90 955 23.3000 131.900 TC 95 23.1910 131.973 4 93 23.3000 131.900 95 956 300 15 294
1961248N18155 1961 86 WP MM PAMELA 1961-09-10 09:00:00 TS 23.5707 131.161 main 827 815 PPPP_____PPP__ WP201961 23.5522 131.157 97 3 23.6749 131.207 9 960 0 0 23.5096 131.149 5 96 960 23.6671 131.107 ST 90 950 23.5522 131.157 TC 97 23.4867 131.195 4 97 23.5522 131.157 98 951 270 14 284
1961248N18155 1961 86 WP MM PAMELA 1961-09-10 12:00:00 TS 23.6857 130.400 955 tokyo main 815 792 OOOO_____OOO__ jtwc_wp WP201961 23.7000 130.400 100 3 23.7000 130.400 9 955 0 0 0 23.5000 130.400 6 106 953 23.8000 130.400 ST 90 945 23.7000 130.400 TC 100 23.7000 130.400 4 102 23.7000 130.400 102 946 240 14 277
1961248N18155 1961 86 WP MM PAMELA 1961-09-10 15:00:00 TS 23.7497 129.652 main 792 710 PPPP_____PPP__ WP201961 23.7871 129.650 105 3 23.7146 129.635 9 950 0 0 23.5496 129.650 6 111 945 23.8371 129.665 ST 92 940 23.7871 129.650 TC 105 23.7849 129.667 4 107 23.7871 129.650 105 941 240 14 273
1961248N18155 1961 86 WP MM PAMELA 1961-09-10 18:00:00 TS 23.7554 128.904 945 tokyo main 710 644 OOOO_____OPO__ jtwc_wp WP201961 23.8000 128.900 110 3 23.7000 128.900 9 945 0 0 0 23.6000 128.900 6 116 937 23.8000 128.900 ST 95 935 23.8000 128.900 TC 110 23.7880 128.927 4 112 23.8000 128.900 108 936 240 14 269
1961248N18155 1961 86 WP MM PAMELA 1961-09-10 21:00:00 TS 23.7353 128.154 main 644 565 PPPP_____PPP__ WP201961 23.7646 128.150 115 4 23.6993 128.215 9 937 0 0 23.6571 128.150 6 126 927 23.7499 128.092 ST 107 930 23.7646 128.150 TC 115 23.7472 128.174 4 117 23.7646 128.150 115 931 240 14 268
1961248N18155 1961 86 WP MM PAMELA 1961-09-11 00:00:00 TS 23.7000 127.400 930 tokyo main 565 495 OOOO_____OOO__ jtwc_wp WP201961 23.7000 127.400 120 4 23.7000 127.500 9 930 0 0 0 23.7000 127.400 6 136 918 23.7000 127.300 SuperT 120 925 23.7000 127.400 TC 120 23.7000 127.400 4 122 23.7000 127.400 122 926 240 14 267
1961248N18155 1961 86 WP MM PAMELA 1961-09-11 03:00:00 TS 23.6652 126.656 main 495 418 PPPP_____PPP__ WP201961 23.6343 126.672 130 4 23.6998 126.680 9 922 0 0 23.6995 126.657 6 150 913 23.6839 126.622 SuperT 130 920 23.6343 126.672 TC 130 23.6700 126.615 4 130 23.6343 126.672 132 922 240 14 268
1961248N18155 1961 86 WP MM PAMELA 1961-09-11 06:00:00 TS 23.6493 125.873 915 tokyo main 418 336 OOOO_____OPO__ jtwc_wp WP201961 23.6000 125.900 140 5 23.7000 125.800 9 915 0 0 0 23.7000 125.900 6 165 909 23.7000 125.900 SuperT 140 915 23.6000 125.900 TC 140 23.6452 125.808 4 138 23.6000 125.900 142 918 240 15 270
1961248N18155 1961 86 WP MM PAMELA 1961-09-11 09:00:00 TS 23.6670 125.010 main 326 249 PPPP_____PPP__ WP201961 23.6122 125.030 147 5 23.6993 124.922 9 912 0 0 23.7495 125.123 6 160 914 23.7354 124.965 SuperT 135 915 23.6122 125.030 TC 147 23.6478 124.971 4 146 23.6122 125.030 148 916 240 16 273
1961248N18155 1961 86 WP MM PAMELA 1961-09-11 12:00:00 TS 23.7286 124.100 910 tokyo main 240 153 OOOO_____OOO__ jtwc_wp WP201961 23.7000 124.100 155 5 23.7000 124.000 9 910 0 0 0 23.8000 124.300 6 155 920 23.8000 124.000 SuperT 130 915 23.7000 124.100 TC 155 23.7000 124.100 4 155 23.7000 124.100 155 914 240 17 275
1961248N18155 1961 86 WP MM PAMELA 1961-09-11 15:00:00 TS 23.8267 123.179 main 153 67 PPPP_____PPP__ WP201961 23.8846 123.158 140 5 23.6626 122.992 9 910 0 0 23.7767 123.444 6 140 927 23.8763 123.200 SuperT 110 920 23.8846 123.158 TC 140 23.8175 123.147 4 137 23.8846 123.158 140 914 240 17 278
1961248N18155 1961 86 WP MM PAMELA 1961-09-11 18:00:00 TS 23.9692 122.238 910 tokyo main 60 0 OOOO_____OPO__ jtwc_wp WP201961 24.1000 122.200 125 4 23.7000 122.000 9 910 0 0 0 23.8000 122.500 6 126 935 24.0000 122.400 ST 90 925 24.1000 122.200 TC 125 23.9841 122.164 4 120 24.1000 122.200 125 915 240 18 280
1961248N18155 1961 86 WP MM PAMELA 1961-09-11 21:00:00 TS 24.1474 121.252 main 0 0 PPPP_____PPP__ WP201961 24.2651 121.205 105 3 23.9193 121.121 9 920 0 0 23.9632 121.386 6 116 942 24.1703 121.442 ST 75 927 24.2651 121.205 TC 105 24.1833 121.199 4 102 24.2651 121.205 105 916 240 18 282
1961248N18155 1961 86 WP MM PAMELA 1961-09-12 00:00:00 TS 24.3429 120.329 930 tokyo main 23 23 OOOO_____OOO__ jtwc_wp WP201961 24.4000 120.300 85 2 24.2000 120.300 9 930 0 0 0 24.2000 120.300 6 106 950 24.4000 120.500 STS 60 930 24.4000 120.300 TC 85 24.4000 120.300 4 85 24.4000 120.300 85 918 240 16 283
1961248N18155 1961 86 WP MM PAMELA 1961-09-12 03:00:00 TS 24.5023 119.572 main 78 20 PPPP_____PPP__ WP201961 24.4689 119.619 70 1 24.3544 119.498 9 935 0 0 24.4334 119.477 6 91 960 24.6998 119.668 STS 50 942 24.4689 119.619 TC 70 24.6222 119.502 4 71 24.4689 119.619 70 920 240 14 285
1961248N18155 1961 86 WP MM PAMELA 1961-09-12 06:00:00 TS 24.7015 118.888 940 tokyo main 20 0 OOOO_____OPO__ jtwc_wp WP201961 24.6000 119.000 55 0 24.6000 118.700 9 940 0 0 0 24.7000 118.700 4 77 970 25.0000 119.000 TS 40 955 24.6000 119.000 TC 55 24.8472 118.788 4 58 24.6000 119.000 55 922 240 14 292
1961248N18155 1961 86 WP MM PAMELA 1961-09-12 09:00:00 TS 25.0168 118.139 main 0 0 PPPP_____PPP__ WP201961 24.9050 118.258 42 0 25.1200 117.836 9 960 0 0 25.0156 117.728 4 48 977 25.2221 118.502 TS 35 967 24.9050 118.258 TC 42 25.0738 118.131 4 45 24.9050 118.258 43 924 240 15 297
1961248N18155 1961 86 WP MM PAMELA 1961-09-12 12:00:00 TS 25.3905 117.371 980 tokyo main 0 0 OOOO_____OOO__ jtwc_wp WP201961 25.3000 117.500 30 -1 25.7000 117.000 9 980 0 0 0 25.3000 116.800 0 19 985 25.4000 118.200 TD 30 980 25.3000 117.500 TC 30 25.3000 117.500 1 32 25.3000 117.500 32 927 240 16 297
1961248N18155 1961 86 WP MM PAMELA 1961-09-12 15:00:00 TS 25.7317 116.612 main 0 0 PPPP_____P_P__ WP201961 25.7029 116.786 27 -1 26.1451 116.195 9 987 0 0 25.4496 116.044 0 18 991 25.5551 118.058 TD 27 990 25.7029 116.786 TC 27 1 25.7029 116.786 28 929 210 15 296
1961248N18155 1961 86 WP MM PAMELA 1961-09-12 18:00:00 TS 26.0333 115.892 995 tokyo main 0 0 OOOO_____O_O__ jtwc_wp WP201961 26.1000 116.100 25 -1 26.5000 115.600 9 995 0 0 0 25.6000 115.500 0 17 997 25.7000 118.000 TD 25 1000 26.1000 116.100 TC 25 1 26.1000 116.100 25 932 180 14 296
1961248N18155 1961 86 WP MM PAMELA 1961-09-12 21:00:00 TS 26.3394 115.219 main 0 0 _PP___________ WP201961 -1 26.8018 115.292 9 995 0 0 25.8771 115.145 0 17 997 TD TC 1 9 310
1961248N18155 1961 86 WP MM PAMELA 1961-09-13 00:00:00 TS 26.6000 115.150 996 tokyo main 0 0 _OO___________ -1 27.0000 115.300 2 996 0 0 0 26.2000 115.000 0 17 998 5 10
1961248N18155 1961 86 WP MM PAMELA 1961-09-13 03:00:00 TS 26.7902 115.312 main 0 0 _PP___________ -1 27.0655 115.635 2 998 0 0 26.5149 114.990 0 17 998 5 45
1961248N18155 1961 86 WP MM PAMELA 1961-09-13 06:00:00 TS 26.9500 115.550 1000 tokyo main 0 0 _OO___________ -1 27.1000 116.000 2 1000 0 0 0 26.8000 115.100 0 17 999 4 37
1961248N18155 1961 86 WP MM PAMELA 1961-09-13 09:00:00 TS 27.1248 115.593 main 0 0 _PP___________ -1 27.2199 116.003 2 1000 0 0 27.0297 115.183 0 17 999 4 14
1961248N18155 1961 86 WP MM PAMELA 1961-09-13 12:00:00 TS 27.3000 115.650 1000 tokyo main 0 0 _OO___________ -1 27.4000 115.900 2 1000 0 0 0 27.2000 115.400 0 17 1000 4 34
1961248N18155 1961 86 WP MM PAMELA 1961-09-13 15:00:00 TS 27.4754 115.852 main 0 0 _PP___________ -1 27.6350 115.870 2 1001 0 0 27.3157 115.835 0 17 1000 6 52
1961248N18155 1961 86 WP MM PAMELA 1961-09-13 18:00:00 TS 27.6500 116.150 1002 tokyo main 0 _OO___________ -1 27.9000 115.900 2 1002 0 0 0 27.4000 116.400 0 17 1001 6 56

デジタル台風データ・検索

IBTrACS Databaseについて

本データベースは、米国NOAAが公開する1842年以降の世界の熱帯低気圧のベストトラックデータアーカイブInternational Best Track Archive for Climate Stewardship (IBTrACS)を、ウェブで閲覧しやすい形式に変換したものです。

最終更新日:2021-12-06